Time;durP1;ratioP1;P1;durP2;ratioP2;P2;SDS_P1;SDS_P2;PMS_P1;PMS_P2;Temp;Humidity;BMP_temperature;BMP_pressure;BME280_temperature;BME280_humidity;BME280_pressure;Samples;Min_cycle;Max_cycle;Signal;HPM_P1;HPM_P2
2021/05/31 00:01:49;;;;;;;5.63;3.15;;;17.30;99.90;;;;;;5056645;28;20186;-84
2021/05/31 00:04:14;;;;;;;2.97;2.60;;;17.10;99.90;;;;;;5055619;28;20184;-85
2021/05/31 00:06:48;;;;;;;6.32;2.75;;;17.20;99.90;;;;;;5055056;28;20171;-84
2021/05/31 00:09:13;;;;;;;2.95;2.60;;;17.10;99.90;;;;;;5054796;28;20183;-84
2021/05/31 00:11:39;;;;;;;3.85;3.13;;;17.00;99.90;;;;;;5054881;28;20293;-84
2021/05/31 00:14:06;;;;;;;2.75;2.55;;;16.90;99.90;;;;;;5055526;28;20171;-85
2021/05/31 00:16:32;;;;;;;3.33;2.65;;;16.90;99.90;;;;;;5037918;28;20183;-85
2021/05/31 00:18:58;;;;;;;2.33;2.15;;;17.10;99.90;;;;;;5056367;28;20190;-84
2021/05/31 00:21:24;;;;;;;2.85;2.65;;;17.20;99.90;;;;;;5056648;28;20206;-84
2021/05/31 00:23:50;;;;;;;2.92;2.70;;;17.10;99.90;;;;;;5037807;28;20159;-84
2021/05/31 00:26:17;;;;;;;12.73;2.65;;;16.90;99.90;;;;;;5055845;28;20178;-85
2021/05/31 00:28:44;;;;;;;3.65;2.75;;;16.70;99.90;;;;;;5055543;28;20184;-84
2021/05/31 00:31:13;;;;;;;4.57;2.67;;;16.70;99.90;;;;;;5035980;28;20203;-84
2021/05/31 00:33:40;;;;;;;3.67;2.88;;;16.80;99.90;;;;;;5054060;28;20174;-84
2021/05/31 00:36:07;;;;;;;3.83;2.70;;;16.80;99.90;;;;;;5054248;28;20191;-84
2021/05/31 00:38:33;;;;;;;2.88;2.67;;;16.60;99.90;;;;;;5054184;28;20170;-84
2021/05/31 00:41:01;;;;;;;3.67;3.00;;;16.60;99.90;;;;;;5053708;28;20175;-84
2021/05/31 00:43:33;;;;;;;3.65;2.92;;;16.60;99.90;;;;;;5053873;28;20155;-84
2021/05/31 00:46:06;;;;;;;3.70;3.40;;;16.70;99.90;;;;;;5053872;28;20171;-83
2021/05/31 00:48:32;;;;;;;3.38;2.70;;;16.80;99.90;;;;;;5053305;28;20242;-82
2021/05/31 00:51:02;;;;;;;6.95;2.63;;;16.60;99.90;;;;;;5053269;28;20265;-84
2021/05/31 00:53:29;;;;;;;3.17;2.83;;;16.50;99.90;;;;;;5053682;28;20171;-83
2021/05/31 00:55:54;;;;;;;3.22;2.92;;;16.50;99.90;;;;;;5053530;28;20177;-84
2021/05/31 00:58:24;;;;;;;3.22;2.92;;;16.40;99.90;;;;;;5036035;28;20257;-83
2021/05/31 01:00:50;;;;;;;3.30;2.78;;;16.30;99.90;;;;;;5053728;28;20163;-85
2021/05/31 01:03:15;;;;;;;3.33;3.00;;;16.20;99.90;;;;;;5053654;28;20237;-84
2021/05/31 01:05:41;;;;;;;4.88;2.70;;;16.10;99.90;;;;;;5053648;28;20225;-84
2021/05/31 01:08:11;;;;;;;4.20;3.08;;;16.00;99.90;;;;;;5053424;28;20582;-84
2021/05/31 01:11:03;;;;;;;3.03;2.63;;;16.00;99.90;;;;;;5053046;28;20265;-84
2021/05/31 01:13:43;;;;;;;10.52;3.25;;;16.10;99.90;;;;;;5053630;28;20191;-83
2021/05/31 01:16:21;;;;;;;3.35;3.05;;;16.00;99.90;;;;;;5053444;28;20171;-85
2021/05/31 01:18:48;;;;;;;3.60;3.30;;;15.90;99.90;;;;;;5053178;28;20674;-84
2021/05/31 01:21:26;;;;;;;3.55;3.25;;;16.00;99.90;;;;;;5035467;28;20257;-84
2021/05/31 01:24:12;;;;;;;3.50;3.10;;;16.00;99.90;;;;;;5053024;28;20246;-84
2021/05/31 01:26:59;;;;;;;9.18;3.60;;;15.80;99.90;;;;;;5039327;28;20179;-84
2021/05/31 01:29:26;;;;;;;6.00;3.28;;;15.60;99.90;;;;;;5052621;28;20187;-83
2021/05/31 01:32:02;;;;;;;7.28;2.83;;;15.70;99.90;;;;;;5053238;28;20179;-85
2021/05/31 01:34:32;;;;;;;3.72;3.25;;;15.70;99.90;;;;;;5034875;28;20171;-84
2021/05/31 01:37:18;;;;;;;3.38;3.08;;;15.70;99.90;;;;;;5035179;28;20533;-83
2021/05/31 01:39:46;;;;;;;5.35;3.13;;;15.70;99.90;;;;;;5052689;28;20189;-84
2021/05/31 01:42:12;;;;;;;4.20;3.58;;;15.60;99.90;;;;;;5052636;28;20171;-84
2021/05/31 01:44:39;;;;;;;9.00;3.28;;;15.70;99.90;;;;;;5052865;28;20164;-83
2021/05/31 01:47:06;;;;;;;5.03;3.00;;;15.70;99.90;;;;;;5052936;28;20635;-84
2021/05/31 01:49:34;;;;;;;3.38;3.08;;;15.80;99.90;;;;;;5052807;28;20237;-84
2021/05/31 01:52:00;;;;;;;3.28;2.97;;;15.80;99.90;;;;;;5052891;28;20167;-84
2021/05/31 01:54:27;;;;;;;3.78;3.15;;;15.70;99.90;;;;;;5052836;28;20675;-84
2021/05/31 01:56:54;;;;;;;5.32;3.28;;;15.60;99.90;;;;;;5052974;28;20167;-84
2021/05/31 01:59:21;;;;;;;4.93;3.28;;;15.70;99.90;;;;;;5052420;28;20241;-83
2021/05/31 02:01:49;;;;;;;3.60;3.20;;;15.70;99.90;;;;;;5052643;28;20171;-83
2021/05/31 02:04:15;;;;;;;4.28;3.55;;;15.80;99.90;;;;;;5052972;28;20187;-84
2021/05/31 02:06:41;;;;;;;4.65;3.67;;;15.80;99.90;;;;;;5034862;28;20167;-85
2021/05/31 02:09:07;;;;;;;4.35;3.35;;;15.70;99.90;;;;;;5052157;28;20183;-85
2021/05/31 02:11:44;;;;;;;4.15;3.40;;;15.80;99.90;;;;;;5052515;28;20284;-85
2021/05/31 02:14:44;;;;;;;6.22;3.47;;;15.70;99.90;;;;;;5052631;28;20178;-84
2021/05/31 02:17:21;;;;;;;3.42;3.17;;;15.80;99.90;;;;;;5019629;28;20186;-85
2021/05/31 02:19:52;;;;;;;3.00;2.78;;;15.80;99.90;;;;;;5052026;28;20190;-84
2021/05/31 02:22:19;;;;;;;3.40;3.10;;;15.90;99.90;;;;;;5053734;28;20537;-85
2021/05/31 02:24:44;;;;;;;6.03;4.00;;;15.70;99.90;;;;;;5056627;28;20178;-84
2021/05/31 02:27:13;;;;;;;3.88;3.58;;;15.80;99.90;;;;;;5056635;28;20176;-84
2021/05/31 02:29:39;;;;;;;5.88;3.90;;;15.80;99.90;;;;;;5055970;28;20550;-83
2021/05/31 02:32:08;;;;;;;3.70;3.40;;;15.50;99.90;;;;;;5056298;28;20171;-84
2021/05/31 02:34:33;;;;;;;4.72;4.32;;;15.40;99.90;;;;;;5056489;28;20168;-84
2021/05/31 02:37:00;;;;;;;4.70;3.88;;;15.50;99.90;;;;;;5056575;28;20186;-84
2021/05/31 02:39:26;;;;;;;4.63;3.95;;;15.60;99.90;;;;;;5039574;28;20183;-84
2021/05/31 02:41:51;;;;;;;4.18;3.75;;;15.70;99.90;;;;;;5038923;28;20233;-85
2021/05/31 02:44:17;;;;;;;3.38;3.08;;;15.90;99.90;;;;;;5056110;28;20229;-84
2021/05/31 02:46:43;;;;;;;4.13;3.83;;;15.80;99.90;;;;;;5057504;28;20624;-84
2021/05/31 02:49:08;;;;;;;4.22;3.63;;;15.80;99.90;;;;;;5056352;28;20546;-84
2021/05/31 02:51:35;;;;;;;6.28;3.47;;;15.70;99.90;;;;;;5056066;28;20195;-82
2021/05/31 02:54:02;;;;;;;3.72;3.40;;;15.50;99.90;;;;;;5056502;28;20254;-84
2021/05/31 02:56:27;;;;;;;4.35;3.95;;;15.20;99.90;;;;;;5055795;28;20174;-84
2021/05/31 02:58:53;;;;;;;4.50;4.13;;;15.20;99.90;;;;;;5055583;28;20183;-84
2021/05/31 03:01:19;;;;;;;3.80;3.38;;;15.10;99.90;;;;;;5037904;28;20250;-85
2021/05/31 03:03:44;;;;;;;4.00;3.58;;;15.00;99.90;;;;;;5055944;28;20210;-84
2021/05/31 03:06:10;;;;;;;3.67;3.33;;;15.00;99.90;;;;;;5055796;28;20190;-84
2021/05/31 03:08:36;;;;;;;4.15;3.78;;;14.90;99.90;;;;;;5055863;28;20248;-84
2021/05/31 03:11:02;;;;;;;7.75;3.08;;;15.00;99.90;;;;;;5055887;28;20203;-84
2021/05/31 03:13:28;;;;;;;5.82;3.90;;;14.90;99.90;;;;;;5055944;28;20561;-83
2021/05/31 03:15:54;;;;;;;4.45;3.72;;;14.80;99.90;;;;;;5055612;28;20163;-84
2021/05/31 03:18:20;;;;;;;5.53;4.10;;;14.90;99.90;;;;;;5056009;28;20253;-83
2021/05/31 03:20:46;;;;;;;5.35;4.78;;;14.80;99.90;;;;;;5056077;28;20175;-84
2021/05/31 03:23:12;;;;;;;4.63;4.07;;;14.80;99.90;;;;;;5055337;28;20731;-83
2021/05/31 03:25:39;;;;;;;13.57;4.57;;;14.80;99.90;;;;;;5055227;28;20643;-83
2021/05/31 03:28:05;;;;;;;9.95;4.20;;;14.90;99.90;;;;;;5055238;28;20171;-83
2021/05/31 03:30:31;;;;;;;5.53;4.32;;;14.90;99.90;;;;;;5055140;28;20675;-82
2021/05/31 03:32:57;;;;;;;4.47;4.10;;;14.80;99.90;;;;;;5055153;28;20163;-83
2021/05/31 03:35:24;;;;;;;5.10;4.40;;;14.60;99.90;;;;;;5055521;28;20183;-84
2021/05/31 03:37:49;;;;;;;6.05;3.78;;;14.70;99.90;;;;;;5055488;28;20623;-83
2021/05/31 03:40:21;;;;;;;4.95;4.18;;;14.70;99.90;;;;;;5055253;28;20183;-83
2021/05/31 03:42:47;;;;;;;6.65;4.15;;;14.60;99.90;;;;;;5055124;28;20164;-84
2021/05/31 03:45:13;;;;;;;5.18;4.47;;;14.60;99.90;;;;;;5055507;28;20524;-84
2021/05/31 03:47:39;;;;;;;7.03;4.25;;;14.50;99.90;;;;;;5054980;28;20176;-83
2021/05/31 03:50:06;;;;;;;6.65;4.43;;;14.50;99.90;;;;;;5054853;28;20559;-82
2021/05/31 03:52:32;;;;;;;6.45;4.90;;;14.60;99.90;;;;;;5054589;28;20217;-83
2021/05/31 03:54:57;;;;;;;4.85;4.28;;;14.80;99.90;;;;;;5054933;28;20720;-84
2021/05/31 03:57:23;;;;;;;10.05;4.47;;;14.80;99.90;;;;;;5054376;28;20238;-84
2021/05/31 03:59:50;;;;;;;9.52;4.28;;;14.80;99.90;;;;;;5036553;28;20556;-83
2021/05/31 04:02:16;;;;;;;7.90;4.45;;;14.70;99.90;;;;;;5054762;28;20156;-84
2021/05/31 04:04:44;;;;;;;6.20;4.15;;;14.80;99.90;;;;;;5037274;28;20190;-84
2021/05/31 04:12:32;;;;;;;9.55;4.43;;;15.60;99.90;;;;;;5058206;28;20210;-84
2021/05/31 04:14:58;;;;;;;6.90;5.05;;;15.80;99.90;;;;;;5074837;28;20175;-81
2021/05/31 04:17:24;;;;;;;8.57;5.22;;;15.80;99.90;;;;;;5079351;28;20223;-81
2021/05/31 04:19:49;;;;;;;4.32;3.92;;;15.80;99.90;;;;;;5077389;28;20179;-83
2021/05/31 04:22:15;;;;;;;13.88;5.07;;;15.80;99.90;;;;;;5078894;28;20186;-80
2021/05/31 04:24:41;;;;;;;7.88;5.30;;;15.70;99.90;;;;;;5062738;28;20174;-84
2021/05/31 04:27:06;;;;;;;5.22;4.03;;;15.70;99.90;;;;;;5054706;28;20254;-84
2021/05/31 04:29:32;;;;;;;4.90;3.75;;;15.50;99.90;;;;;;5054144;28;20183;-83
2021/05/31 04:31:58;;;;;;;9.25;5.25;;;15.40;99.90;;;;;;5054220;28;20175;-83
2021/05/31 04:34:24;;;;;;;5.72;5.22;;;15.30;99.90;;;;;;5053852;28;20166;-82
2021/05/31 04:36:49;;;;;;;10.90;5.22;;;15.20;99.90;;;;;;5053950;28;20254;-82
2021/05/31 04:39:15;;;;;;;9.25;4.63;;;15.00;99.90;;;;;;5054514;28;20189;-82
2021/05/31 04:41:41;;;;;;;5.35;4.85;;;15.00;99.90;;;;;;5055421;28;20168;-83
2021/05/31 04:44:08;;;;;;;8.02;5.63;;;15.10;99.90;;;;;;5055512;28;20251;-83
2021/05/31 04:46:33;;;;;;;10.80;5.40;;;15.00;99.90;;;;;;5054490;28;20166;-82
2021/05/31 04:49:03;;;;;;;5.25;4.75;;;15.00;99.90;;;;;;5053942;28;20199;-82
2021/05/31 04:51:30;;;;;;;6.25;5.65;;;15.10;99.90;;;;;;5053620;28;20207;-83
2021/05/31 04:53:57;;;;;;;8.10;6.00;;;15.20;99.90;;;;;;5054936;28;20167;-83
2021/05/31 04:56:24;;;;;;;6.43;5.85;;;15.10;99.90;;;;;;5054084;28;20164;-82
2021/05/31 04:58:49;;;;;;;10.18;5.05;;;15.20;99.90;;;;;;5053632;28;20183;-83
2021/05/31 05:01:15;;;;;;;9.00;5.68;;;15.20;99.90;;;;;;5054063;28;20174;-83
2021/05/31 05:03:41;;;;;;;9.75;5.22;;;15.40;99.90;;;;;;5054241;28;20178;-82
2021/05/31 05:06:06;;;;;;;6.90;5.15;;;15.40;99.90;;;;;;5036591;28;20221;-81
2021/05/31 05:08:32;;;;;;;12.80;5.80;;;15.50;99.90;;;;;;5035699;28;20172;-84
2021/05/31 05:10:58;;;;;;;7.13;5.95;;;15.80;99.90;;;;;;5053558;28;20905;-84
2021/05/31 05:13:23;;;;;;;9.52;5.57;;;15.90;99.90;;;;;;5035327;28;20207;-84
2021/05/31 05:15:49;;;;;;;9.80;5.95;;;16.00;99.90;;;;;;5053140;28;20174;-84
2021/05/31 05:18:15;;;;;;;15.85;6.05;;;16.20;99.90;;;;;;5053253;28;20627;-83
2021/05/31 05:20:42;;;;;;;10.98;6.18;;;16.30;99.90;;;;;;5053041;28;20167;-84
2021/05/31 05:23:08;;;;;;;16.45;6.00;;;16.40;99.90;;;;;;5052968;28;20198;-83
2021/05/31 05:25:33;;;;;;;9.10;5.40;;;16.40;99.90;;;;;;5052070;28;20192;-84
2021/05/31 05:27:59;;;;;;;8.52;6.50;;;16.50;99.90;;;;;;5052792;28;20620;-84
2021/05/31 05:30:28;;;;;;;9.93;6.10;;;16.50;99.90;;;;;;5052921;28;20215;-84
2021/05/31 05:32:59;;;;;;;29.25;6.00;;;16.70;99.90;;;;;;5053484;28;20238;-83
2021/05/31 05:35:30;;;;;;;13.77;5.80;;;16.60;99.90;;;;;;5052777;28;20186;-84
2021/05/31 05:45:56;;;;;;;15.93;5.88;;;16.70;99.90;;;;;;5052400;28;20168;-81
2021/05/31 05:48:22;;;;;;;6.95;5.47;;;16.80;99.90;;;;;;5034292;28;20622;-81
2021/05/31 05:50:48;;;;;;;8.75;5.60;;;16.70;99.90;;;;;;5034506;28;20207;-81
2021/05/31 05:53:14;;;;;;;6.45;5.75;;;16.70;99.90;;;;;;5052376;28;20658;-82
2021/05/31 05:55:39;;;;;;;7.38;5.80;;;16.60;99.90;;;;;;5052041;28;20748;-83
2021/05/31 05:58:06;;;;;;;13.75;5.65;;;16.60;99.90;;;;;;5052321;28;20642;-81
2021/05/31 06:00:33;;;;;;;9.10;6.32;;;16.60;99.90;;;;;;5051922;28;20183;-81
2021/05/31 06:02:59;;;;;;;15.88;5.95;;;16.60;99.90;;;;;;5051866;28;20186;-81
2021/05/31 06:05:25;;;;;;;8.77;5.38;;;16.70;99.90;;;;;;5052006;28;20175;-81
2021/05/31 06:07:51;;;;;;;10.40;5.57;;;16.70;99.90;;;;;;5051844;28;20174;-82
2021/05/31 06:10:18;;;;;;;6.15;4.80;;;16.70;99.90;;;;;;5051980;28;20209;-81
2021/05/31 06:12:44;;;;;;;14.10;5.18;;;16.90;99.90;;;;;;5051770;28;20167;-81
2021/05/31 06:15:12;;;;;;;7.80;4.18;;;17.10;99.90;;;;;;5051904;28;20266;-82
2021/05/31 06:17:38;;;;;;;5.78;4.70;;;17.20;99.90;;;;;;5051381;28;20198;-85
2021/05/31 06:20:05;;;;;;;9.45;4.88;;;17.20;99.90;;;;;;5034180;28;20658;-82
2021/05/31 06:22:39;;;;;;;21.20;5.15;;;17.30;99.90;;;;;;5052174;28;20178;-81
2021/05/31 06:25:10;;;;;;;10.27;4.03;;;17.50;99.90;;;;;;5051881;28;20198;-80
2021/05/31 06:27:36;;;;;;;5.55;4.40;;;17.60;99.90;;;;;;5052094;28;20167;-81
2021/05/31 06:30:06;;;;;;;5.82;4.95;;;17.50;99.90;;;;;;5050996;28;20210;-81
2021/05/31 06:32:32;;;;;;;4.30;3.90;;;17.70;99.90;;;;;;5051776;28;20290;-79
2021/05/31 06:34:58;;;;;;;4.18;3.55;;;17.70;99.90;;;;;;5051836;28;20304;-80
2021/05/31 06:37:24;;;;;;;5.75;3.38;;;17.90;99.90;;;;;;5051452;28;20172;-81
2021/05/31 06:39:50;;;;;;;4.20;3.80;;;18.00;99.90;;;;;;5052158;28;20655;-82
2021/05/31 06:42:15;;;;;;;9.60;3.92;;;18.00;99.90;;;;;;5052010;28;20250;-83
2021/05/31 06:44:41;;;;;;;10.57;4.00;;;18.10;99.90;;;;;;5052348;28;20301;-81
2021/05/31 06:47:08;;;;;;;8.43;4.20;;;18.20;99.90;;;;;;5052732;28;20168;-85
2021/05/31 06:49:35;;;;;;;7.32;4.20;;;18.40;99.90;;;;;;5050417;28;20213;-83
2021/05/31 06:52:02;;;;;;;14.90;4.75;;;18.50;99.90;;;;;;5050191;28;20377;-80
2021/05/31 06:54:28;;;;;;;6.95;3.60;;;18.80;99.90;;;;;;5050636;28;20653;-80
2021/05/31 06:56:53;;;;;;;8.35;3.35;;;19.10;99.90;;;;;;5051406;28;20245;-83
2021/05/31 06:59:19;;;;;;;5.68;3.47;;;19.60;99.90;;;;;;5053454;28;20207;-84
2021/05/31 07:01:45;;;;;;;2.63;2.42;;;20.40;99.90;;;;;;5053054;28;20258;-77
2021/05/31 07:04:10;;;;;;;3.53;3.20;;;21.40;99.90;;;;;;5058527;28;20171;-75
2021/05/31 07:06:36;;;;;;;3.90;3.25;;;22.00;99.90;;;;;;5058913;28;20187;-78
2021/05/31 07:09:02;;;;;;;3.53;2.83;;;22.50;99.90;;;;;;5060104;28;20266;-76
2021/05/31 07:11:28;;;;;;;11.32;3.50;;;22.60;99.90;;;;;;5055592;28;20199;-77
2021/05/31 07:13:56;;;;;;;4.65;2.85;;;23.70;99.90;;;;;;5037573;28;20704;-76
2021/05/31 07:16:21;;;;;;;6.72;3.05;;;24.70;99.90;;;;;;5037207;28;20175;-77
2021/05/31 07:18:47;;;;;;;3.03;2.58;;;25.40;99.90;;;;;;5054636;28;20254;-77
2021/05/31 07:21:13;;;;;;;4.75;3.22;;;26.10;99.00;;;;;;5054523;28;20163;-77
2021/05/31 07:23:38;;;;;;;2.47;2.28;;;26.10;96.60;;;;;;5054159;28;20174;-77
2021/05/31 07:26:06;;;;;;;7.60;2.80;;;25.30;96.30;;;;;;5037108;28;20623;-78
2021/05/31 07:28:31;;;;;;;4.32;2.50;;;26.00;95.80;;;;;;5055095;28;20317;-79
2021/05/31 07:30:57;;;;;;;4.88;1.80;;;25.80;95.20;;;;;;5055067;28;20289;-79
2021/05/31 07:33:23;;;;;;;10.18;3.08;;;26.80;94.50;;;;;;5055015;28;20168;-77
2021/05/31 07:35:49;;;;;;;3.80;2.08;;;27.00;93.20;;;;;;5055165;28;20282;-76
2021/05/31 07:38:15;;;;;;;2.25;2.05;;;25.40;93.30;;;;;;5054612;28;20163;-77
2021/05/31 07:40:40;;;;;;;3.55;2.63;;;25.10;93.50;;;;;;5054515;28;20187;-77
2021/05/31 07:43:06;;;;;;;2.88;2.53;;;26.10;93.40;;;;;;5038336;28;20170;-81
2021/05/31 07:45:32;;;;;;;4.97;2.45;;;26.30;92.50;;;;;;5057076;28;20163;-84
2021/05/31 07:47:57;;;;;;;3.47;2.45;;;25.80;92.40;;;;;;5056419;28;20159;-86
2021/05/31 07:50:23;;;;;;;3.50;2.53;;;24.90;93.00;;;;;;5055673;28;20587;-84
2021/05/31 07:52:49;;;;;;;2.05;1.88;;;24.80;93.50;;;;;;5056794;28;20178;-80
2021/05/31 07:55:16;;;;;;;4.70;2.38;;;24.10;93.90;;;;;;5056444;28;20224;-86
2021/05/31 07:57:44;;;;;;;3.05;2.40;;;23.80;94.80;;;;;;5056736;28;20159;-88
2021/05/31 08:00:13;;;;;;;6.82;2.70;;;23.70;94.60;;;;;;5056081;28;20257;-87
2021/05/31 08:02:42;;;;;;;2.88;2.67;;;23.30;95.30;;;;;;5056633;28;20175;-87
2021/05/31 08:05:08;;;;;;;5.68;2.70;;;23.10;95.50;;;;;;5056201;28;20167;-84
2021/05/31 08:07:33;;;;;;;2.45;2.25;;;22.50;96.00;;;;;;5056226;28;20624;-82
2021/05/31 08:09:59;;;;;;;2.63;2.42;;;22.50;96.20;;;;;;5054680;28;20193;-83
2021/05/31 08:12:25;;;;;;;5.25;2.70;;;22.50;96.70;;;;;;5054872;28;20163;-84
2021/05/31 08:14:50;;;;;;;13.45;2.08;;;22.10;96.90;;;;;;5054470;28;20171;-81
2021/05/31 08:17:16;;;;;;;5.63;2.38;;;22.30;97.10;;;;;;5054705;28;20163;-81
2021/05/31 08:19:42;;;;;;;2.83;2.47;;;22.00;96.90;;;;;;5052993;28;20194;-80
2021/05/31 08:22:08;;;;;;;8.05;3.67;;;22.00;97.30;;;;;;5054148;28;20247;-81
2021/05/31 08:24:35;;;;;;;5.00;2.47;;;22.20;97.10;;;;;;5032700;28;20203;-80
2021/05/31 08:27:02;;;;;;;4.85;2.83;;;22.20;96.20;;;;;;5036328;28;20509;-82
2021/05/31 08:29:28;;;;;;;3.47;2.08;;;22.40;95.40;;;;;;5053318;28;20183;-80
2021/05/31 08:31:54;;;;;;;5.25;2.08;;;22.50;96.10;;;;;;5054091;28;20210;-78
2021/05/31 08:34:25;;;;;;;3.30;1.83;;;22.70;95.30;;;;;;5035411;28;20695;-82
2021/05/31 08:36:54;;;;;;;2.95;2.35;;;22.80;95.00;;;;;;5053505;28;20198;-81
2021/05/31 08:39:23;;;;;;;10.32;2.08;;;22.90;94.90;;;;;;5053496;28;20209;-81
2021/05/31 08:41:52;;;;;;;5.57;2.05;;;22.80;94.80;;;;;;5053416;28;20171;-83
2021/05/31 08:44:23;;;;;;;3.55;2.10;;;22.80;94.00;;;;;;5054514;28;20175;-77
2021/05/31 08:46:51;;;;;;;3.83;1.92;;;22.90;94.20;;;;;;5052416;28;20212;-82
2021/05/31 08:49:18;;;;;;;1.98;1.80;;;22.90;93.60;;;;;;5052748;28;20217;-82
2021/05/31 08:51:44;;;;;;;10.88;3.45;;;22.80;92.50;;;;;;5052119;28;20302;-82
2021/05/31 08:54:09;;;;;;;4.75;2.00;;;22.80;92.70;;;;;;5053203;28;20675;-82
2021/05/31 08:56:35;;;;;;;2.55;1.70;;;22.70;92.10;;;;;;5053250;28;20170;-82
2021/05/31 08:59:00;;;;;;;1.58;1.48;;;22.70;91.70;;;;;;5053280;28;20190;-82
2021/05/31 09:01:27;;;;;;;2.88;1.52;;;22.70;92.10;;;;;;5053558;28;20163;-83
2021/05/31 09:03:55;;;;;;;2.35;1.55;;;22.90;91.90;;;;;;5053791;28;20190;-82
2021/05/31 09:06:21;;;;;;;3.33;1.98;;;23.20;91.30;;;;;;5053093;28;20163;-83
2021/05/31 09:08:56;;;;;;;2.42;1.70;;;23.10;91.70;;;;;;5053430;28;20584;-82
2021/05/31 09:11:24;;;;;;;2.15;1.95;;;23.20;90.90;;;;;;5053394;28;20215;-83
2021/05/31 09:13:50;;;;;;;9.35;2.05;;;22.90;91.50;;;;;;5053398;28;20163;-81
2021/05/31 09:16:26;;;;;;;5.38;2.20;;;22.70;91.70;;;;;;5053137;28;20190;-83
2021/05/31 09:18:53;;;;;;;4.57;2.40;;;22.60;92.20;;;;;;5053342;28;20275;-84
2021/05/31 09:21:35;;;;;;;3.67;2.00;;;22.80;92.40;;;;;;5053593;28;20216;-83
2021/05/31 09:24:07;;;;;;;2.13;1.90;;;23.00;91.60;;;;;;5053298;28;20622;-83
2021/05/31 09:26:50;;;;;;;2.03;1.90;;;23.00;91.50;;;;;;5053498;28;20548;-85
2021/05/31 09:29:17;;;;;;;1.75;1.65;;;23.10;91.10;;;;;;5053110;28;20194;-85
2021/05/31 09:31:43;;;;;;;3.47;2.20;;;23.10;91.60;;;;;;5052810;28;20238;-82
2021/05/31 09:34:12;;;;;;;6.72;2.42;;;23.10;92.20;;;;;;5053838;28;20170;-84
2021/05/31 09:36:50;;;;;;;2.63;2.00;;;23.30;92.00;;;;;;5053010;28;20182;-83
2021/05/31 09:39:16;;;;;;;3.22;2.30;;;23.60;91.60;;;;;;5053271;28;20183;-84
2021/05/31 09:41:42;;;;;;;3.22;1.85;;;23.70;91.90;;;;;;5055246;28;20174;-83
2021/05/31 09:44:09;;;;;;;9.07;2.38;;;23.70;91.90;;;;;;5063040;28;20230;-84
2021/05/31 09:46:42;;;;;;;8.95;2.85;;;23.60;91.60;;;;;;5072877;28;20186;-81
2021/05/31 09:49:23;;;;;;;2.97;1.80;;;23.60;91.50;;;;;;5074579;28;20242;-79
2021/05/31 09:51:59;;;;;;;2.88;1.83;;;23.40;91.50;;;;;;5073462;28;20197;-80
2021/05/31 09:54:34;;;;;;;2.47;2.08;;;23.40;91.80;;;;;;5055570;28;20312;-82
2021/05/31 09:57:22;;;;;;;2.22;1.85;;;23.50;91.90;;;;;;5053721;28;20183;-83
2021/05/31 10:00:02;;;;;;;4.03;2.53;;;23.40;91.80;;;;;;5038828;28;20550;-83
2021/05/31 10:07:54;;;;;;;4.03;2.03;;;23.50;91.40;;;;;;5053148;28;20206;-83
2021/05/31 10:10:19;;;;;;;6.05;2.05;;;23.60;92.20;;;;;;5034380;28;20647;-82
2021/05/31 10:12:45;;;;;;;2.70;2.30;;;23.70;91.40;;;;;;5052622;28;20170;-82
2021/05/31 10:15:13;;;;;;;2.92;2.17;;;23.70;91.80;;;;;;5053553;28;20337;-83
2021/05/31 10:17:39;;;;;;;2.45;2.20;;;23.70;91.60;;;;;;5052965;28;20167;-85
2021/05/31 10:20:07;;;;;;;3.30;2.25;;;24.00;92.60;;;;;;5053494;28;20219;-85
2021/05/31 10:22:34;;;;;;;2.53;2.33;;;24.00;91.10;;;;;;5053952;28;20171;-81
2021/05/31 10:25:01;;;;;;;12.13;3.47;;;24.10;91.90;;;;;;5053376;28;20623;-86
2021/05/31 10:27:29;;;;;;;2.40;2.20;;;23.90;91.80;;;;;;5053557;28;20172;-86
2021/05/31 10:29:57;;;;;;;3.17;2.10;;;23.40;92.40;;;;;;5052959;28;20662;-85
2021/05/31 10:32:22;;;;;;;3.75;1.92;;;23.40;92.60;;;;;;5053671;28;20556;-83
2021/05/31 10:34:50;;;;;;;2.42;2.22;;;23.60;92.00;;;;;;5058631;28;20190;-86
2021/05/31 10:37:25;;;;;;;3.67;2.28;;;23.40;91.40;;;;;;5053070;28;20182;-86
2021/05/31 10:40:06;;;;;;;5.85;2.38;;;23.50;91.50;;;;;;5052814;28;20186;-85
2021/05/31 10:42:45;;;;;;;3.45;2.55;;;23.20;91.50;;;;;;5082495;22;20218;-84
2021/05/31 10:45:24;;;;;;;3.58;2.10;;;23.30;91.00;;;;;;5079949;28;20176;-78
2021/05/31 10:48:16;;;;;;;4.72;2.03;;;23.50;91.80;;;;;;5079338;28;20163;-90
2021/05/31 10:51:00;;;;;;;3.65;1.90;;;23.50;90.80;;;;;;5051953;28;20250;-80
2021/05/31 10:53:31;;;;;;;3.72;2.30;;;23.10;91.20;;;;;;5055147;28;20225;-79
2021/05/31 10:56:17;;;;;;;5.05;2.20;;;23.10;91.90;;;;;;5053856;28;20160;-80
2021/05/31 10:58:48;;;;;;;2.67;2.47;;;23.20;91.80;;;;;;5054885;28;20187;-80
2021/05/31 11:01:34;;;;;;;3.08;2.20;;;23.20;91.50;;;;;;5055068;28;20181;-78
2021/05/31 11:04:15;;;;;;;4.90;2.33;;;23.50;91.70;;;;;;5037369;28;20171;-81
2021/05/31 11:06:40;;;;;;;6.40;2.75;;;23.60;91.00;;;;;;5054827;28;20229;-81
2021/05/31 11:09:08;;;;;;;5.60;2.05;;;23.70;90.70;;;;;;5055184;28;20579;-82
2021/05/31 11:11:47;;;;;;;10.73;2.20;;;23.70;91.00;;;;;;5036778;28;20214;-80
2021/05/31 11:14:15;;;;;;;10.65;2.10;;;23.50;91.00;;;;;;5054656;28;20190;-79
2021/05/31 11:16:55;;;;;;;6.03;2.30;;;23.30;91.00;;;;;;5055111;28;20581;-81
2021/05/31 11:19:40;;;;;;;3.25;2.33;;;23.40;90.80;;;;;;5054823;28;20183;-82
2021/05/31 11:22:23;;;;;;;8.00;2.28;;;23.70;91.40;;;;;;5055030;28;20164;-83
2021/05/31 11:24:52;;;;;;;2.38;2.17;;;23.70;90.80;;;;;;5054744;28;20178;-81
2021/05/31 11:27:34;;;;;;;3.13;2.35;;;23.50;91.40;;;;;;5036461;28;20174;-80
2021/05/31 11:30:04;;;;;;;2.75;2.15;;;23.40;92.10;;;;;;5054775;28;20187;-82
2021/05/31 11:32:29;;;;;;;2.53;2.33;;;23.50;90.60;;;;;;5054521;28;20643;-80
2021/05/31 11:35:04;;;;;;;7.82;2.63;;;23.60;91.30;;;;;;5054311;28;20171;-80
2021/05/31 11:37:32;;;;;;;4.13;2.40;;;23.80;91.00;;;;;;5055433;28;20163;-86
2021/05/31 11:39:59;;;;;;;11.02;2.53;;;24.10;90.90;;;;;;5057457;28;20199;-80
2021/05/31 11:42:25;;;;;;;10.38;2.20;;;24.20;90.10;;;;;;5058096;28;20179;-84
2021/05/31 11:44:58;;;;;;;5.10;2.88;;;24.00;90.50;;;;;;5041190;28;20657;-82
2021/05/31 11:47:27;;;;;;;8.40;3.03;;;24.00;90.40;;;;;;5058493;28;20170;-81
2021/05/31 11:49:53;;;;;;;3.10;2.10;;;24.00;90.40;;;;;;5057410;28;20687;-81
2021/05/31 11:52:24;;;;;;;3.58;2.40;;;24.10;90.20;;;;;;5055318;28;20186;-81
2021/05/31 11:54:49;;;;;;;5.30;2.92;;;24.00;89.90;;;;;;5055301;28;20654;-82
2021/05/31 11:57:20;;;;;;;2.88;2.55;;;23.90;90.10;;;;;;5054721;28;20167;-80
2021/05/31 11:59:47;;;;;;;5.22;2.40;;;23.90;90.60;;;;;;5055472;28;20647;-86
2021/05/31 12:02:21;;;;;;;8.63;2.60;;;23.60;91.50;;;;;;5055605;28;20599;-82
2021/05/31 12:04:48;;;;;;;3.63;2.67;;;23.60;91.30;;;;;;5053910;28;20159;-81
2021/05/31 12:07:20;;;;;;;3.80;1.95;;;23.70;91.40;;;;;;5054199;28;20627;-82
2021/05/31 12:09:46;;;;;;;10.60;2.40;;;23.80;91.50;;;;;;5037583;28;20210;-84
2021/05/31 12:12:17;;;;;;;2.70;2.50;;;24.10;91.00;;;;;;5036033;28;20562;-81
2021/05/31 12:14:50;;;;;;;13.02;2.72;;;24.00;90.90;;;;;;5053700;28;20214;-83
2021/05/31 12:17:17;;;;;;;7.55;2.90;;;23.90;90.80;;;;;;5035970;28;20939;-82
2021/05/31 12:19:46;;;;;;;6.45;3.20;;;23.60;91.50;;;;;;5053989;28;20298;-78
2021/05/31 12:22:12;;;;;;;2.45;2.25;;;23.80;91.20;;;;;;5053442;28;20657;-78
2021/05/31 12:24:47;;;;;;;4.53;2.08;;;23.80;91.20;;;;;;5054474;28;20171;-78
2021/05/31 12:27:14;;;;;;;6.55;2.03;;;24.00;90.70;;;;;;5054007;28;20163;-83
2021/05/31 12:29:48;;;;;;;6.22;3.00;;;24.30;90.60;;;;;;5054065;28;20194;-82
2021/05/31 12:32:17;;;;;;;5.57;2.58;;;24.50;90.40;;;;;;5037170;28;20312;-81
2021/05/31 12:34:43;;;;;;;7.88;2.83;;;24.60;89.90;;;;;;5052930;28;20175;-81
2021/05/31 12:37:14;;;;;;;2.95;2.72;;;24.30;90.20;;;;;;5053993;28;20171;-79
2021/05/31 12:39:47;;;;;;;3.80;2.28;;;24.20;90.30;;;;;;5053944;28;20329;-84
2021/05/31 12:42:19;;;;;;;2.80;2.35;;;24.10;90.80;;;;;;5053957;28;20550;-81
2021/05/31 12:44:47;;;;;;;2.60;2.40;;;24.20;90.10;;;;;;5057532;28;20493;-82
2021/05/31 12:47:22;;;;;;;3.70;2.90;;;24.00;90.30;;;;;;5037755;28;20229;-88
2021/05/31 12:49:50;;;;;;;5.72;2.40;;;23.70;90.80;;;;;;5037594;28;20198;-81
2021/05/31 12:52:29;;;;;;;2.40;2.20;;;23.60;90.60;;;;;;5055211;28;20276;-82
2021/05/31 12:55:06;;;;;;;11.75;2.17;;;23.50;90.40;;;;;;5053567;28;20163;-81
2021/05/31 12:57:36;;;;;;;3.20;2.03;;;23.70;89.70;;;;;;5054181;28;20158;-82
2021/05/31 13:00:07;;;;;;;3.08;2.15;;;23.70;89.60;;;;;;5036867;28;20191;-80
2021/05/31 13:02:33;;;;;;;7.85;2.95;;;23.80;89.60;;;;;;5052946;28;20175;-79
2021/05/31 13:05:02;;;;;;;3.53;2.53;;;24.00;90.00;;;;;;5051852;28;20262;-79
2021/05/31 13:07:32;;;;;;;4.57;2.33;;;24.20;88.20;;;;;;5050864;28;20611;-79
2021/05/31 13:10:05;;;;;;;7.28;2.10;;;24.30;88.90;;;;;;5035476;28;20202;-79
2021/05/31 13:12:31;;;;;;;3.60;2.30;;;24.20;88.70;;;;;;5052942;28;20201;-85